Nimbus Weather Services

Informe meteorológico para Carrasco, Uruguay. El informe se hizo hace 41 minutos, a las 07:00 UTC. El viento soplaba a una velocidad de 2.6 m/s (5.8 millas por hora) del este (080°). La temperatura era 20 °C (68 °F), con un punto de rocío de 18 °C (64 °F). La presión atmosférica era 1012 hPa (29.88 inHg). Había una humedad relativa del 88.3%. Cielo nublado a partir de los 2134 metros (7000 pies) En aquel momento la visibilidad global era 8.0 kilómetros (5.0 millas). Actualmente garúa moderada .

La clave METAR es: SUMU 210700Z 08005KT 8000 DZ OVC070 20/18 Q1012 NOSIG

Consulta realizada el Sábado 21 de Abril de 2018 4:40. Tiempo usado para generar esta pagina:4,871 ms.